createdAt,value
2023-04-19T00:01:27.842Z,4.06
2023-04-19T00:07:32.343Z,4.06
2023-04-19T00:11:34.956Z,4.06
2023-04-19T00:17:39.494Z,4.05
2023-04-19T00:21:42.434Z,4.06
2023-04-19T00:25:46.162Z,4.06
2023-04-19T00:27:47.495Z,4.06
2023-04-19T00:31:49.671Z,4.05
2023-04-19T00:33:51.588Z,4.05
2023-04-19T00:35:53.453Z,4.05
2023-04-19T00:37:55.407Z,4.05
2023-04-19T00:43:59.867Z,4.05
2023-04-19T00:46:01.371Z,4.05
2023-04-19T00:50:04.331Z,4.05
2023-04-19T00:54:08.175Z,4.05
2023-04-19T01:00:12.377Z,4.05
2023-04-19T01:04:15.357Z,4.05
2023-04-19T01:06:16.184Z,4.05
2023-04-19T01:10:19.714Z,4.04
2023-04-19T01:14:21.860Z,4.04
2023-04-19T01:16:23.522Z,4.05
2023-04-19T01:20:26.988Z,4.05
2023-04-19T01:26:31.139Z,4.04
2023-04-19T01:32:35.317Z,4.04
2023-04-19T01:36:38.319Z,4.04
2023-04-19T01:42:42.858Z,4.04
2023-04-19T01:46:46.007Z,4.04
2023-04-19T01:48:47.391Z,4.04
2023-04-19T01:52:50.340Z,4.04
2023-04-19T01:56:53.055Z,4.04
2023-04-19T01:58:54.181Z,4.04
2023-04-19T02:02:57.223Z,4.04
2023-04-19T02:09:01.384Z,4.04
2023-04-19T02:15:06.016Z,4.04
2023-04-19T02:19:08.856Z,4.04
2023-04-19T02:25:13.647Z,4.04
2023-04-19T02:29:16.058Z,4.04
2023-04-19T02:31:17.453Z,4.04
2023-04-19T02:35:20.400Z,4.04
2023-04-19T02:39:23.570Z,4.04
2023-04-19T02:41:24.593Z,4.04
2023-04-19T02:45:27.602Z,4.03
2023-04-19T02:51:32.365Z,4.04
2023-04-19T02:57:36.136Z,4.03
2023-04-19T02:58:20.013Z,4.03
2023-04-19T03:02:22.905Z,4.03
2023-04-19T03:06:26.056Z,4.03
2023-04-19T03:08:28.034Z,4.03
2023-04-19T03:12:31.550Z,4.03
2023-04-19T03:16:34.814Z,4.03
2023-04-19T03:18:36.477Z,4.03
2023-04-19T03:22:39.278Z,4.03
2023-04-19T03:28:43.577Z,4.03
2023-04-19T03:34:48.699Z,4.03
2023-04-19T03:38:50.893Z,4.02
2023-04-19T03:44:55.274Z,4.03
2023-04-19T03:50:59.491Z,4.02
2023-04-19T03:55:02.420Z,4.03
2023-04-19T03:59:05.148Z,4.02
2023-04-19T04:01:06.706Z,4.02
2023-04-19T04:05:10.713Z,4.02
2023-04-19T04:09:13.907Z,4.02
2023-04-19T04:11:15.181Z,4.02
2023-04-19T04:15:17.782Z,4.02
2023-04-19T04:17:19.300Z,4.02
2023-04-19T04:19:20.848Z,4.02
2023-04-19T04:21:21.872Z,4.02
2023-04-19T04:27:26.522Z,4.02
2023-04-19T04:33:31.894Z,4.02
2023-04-19T04:37:35.020Z,4.02
2023-04-19T04:43:40.428Z,4.02
2023-04-19T04:47:42.915Z,4.02
2023-04-19T04:53:46.923Z,4.02
2023-04-19T04:57:49.280Z,4.02
2023-04-19T04:59:50.682Z,4.01
2023-04-19T05:03:54.248Z,4.02
2023-04-19T05:09:58.829Z,4.02
2023-04-19T05:16:04.095Z,4.01
2023-04-19T05:20:07.171Z,4.01
2023-04-19T05:26:11.030Z,4.01
2023-04-19T05:30:14.000Z,4.01
2023-04-19T05:32:15.540Z,4.01
2023-04-19T05:36:18.226Z,4.01
2023-04-19T05:40:21.731Z,4.01
2023-04-19T05:42:22.920Z,4.01
2023-04-19T05:46:25.478Z,4.01
2023-04-19T05:52:29.003Z,4.01
2023-04-19T05:58:33.799Z,4.01
2023-04-19T06:02:37.378Z,4.01
2023-04-19T06:08:41.253Z,4
2023-04-19T06:12:43.998Z,4.01
2023-04-19T06:14:44.972Z,4.01
2023-04-19T06:18:47.959Z,4.01
2023-04-19T06:22:51.224Z,4
2023-04-19T06:24:52.561Z,4
2023-04-19T06:28:55.750Z,4
2023-04-19T06:35:00.199Z,4.01
2023-04-19T06:41:04.256Z,4
2023-04-19T06:45:07.262Z,4
2023-04-19T06:51:12.163Z,4
2023-04-19T06:55:15.436Z,4
2023-04-19T06:57:16.477Z,4
2023-04-19T07:01:18.680Z,4
2023-04-19T07:05:22.245Z,4
2023-04-19T07:07:23.540Z,4
2023-04-19T07:11:26.268Z,4
2023-04-19T07:15:29.549Z,4
2023-04-19T07:23:35.088Z,4.01
2023-04-19T07:29:38.661Z,4.01
2023-04-19T07:33:41.377Z,4.02
2023-04-19T07:39:46.008Z,4.02
2023-04-19T07:43:48.176Z,4.02
2023-04-19T07:45:51.042Z,4.02
2023-04-19T07:49:52.648Z,4.02
2023-04-19T07:53:55.905Z,4.02
2023-04-19T07:55:57.633Z,4.01
2023-04-19T08:00:00.208Z,4.01
2023-04-19T08:06:05.023Z,4.02
2023-04-19T08:12:12.621Z,4.04
2023-04-19T08:16:32.110Z,4.04
2023-04-19T08:22:16.587Z,4.04
2023-04-19T08:26:20.088Z,4.03
2023-04-19T08:28:21.470Z,4.02
2023-04-19T08:32:24.531Z,4.02
2023-04-19T08:36:35.828Z,4.02
2023-04-19T08:38:28.398Z,4.03
2023-04-19T08:42:36.126Z,4.03
2023-04-19T08:48:35.660Z,4.02
2023-04-19T08:54:40.332Z,4.02
2023-04-19T09:04:48.136Z,4.02
2023-04-19T09:08:50.735Z,4.02
2023-04-19T09:10:51.820Z,4.02
2023-04-19T09:15:01.487Z,4.02
2023-04-19T09:19:03.059Z,4.02
2023-04-19T09:20:58.633Z,4.02
2023-04-19T09:25:34.269Z,4.02
2023-04-19T09:27:03.866Z,4.02
2023-04-19T09:31:24.087Z,4.02
2023-04-19T09:35:10.128Z,4.01
2023-04-19T09:37:15.038Z,4.02
2023-04-19T09:39:13.262Z,4.02
2023-04-19T09:41:14.457Z,4.02
2023-04-19T09:44:14.214Z,4.02
2023-04-19T09:48:02.024Z,4.02
2023-04-19T09:52:04.404Z,4.02
2023-04-19T09:58:09.702Z,4.02
2023-04-19T10:02:12.513Z,4.02
2023-04-19T10:04:24.016Z,4.03
2023-04-19T10:08:16.620Z,4.03
2023-04-19T10:12:38.864Z,4.03
2023-04-19T10:14:20.120Z,4.03
2023-04-19T10:18:22.995Z,4.04
2023-04-19T10:24:28.108Z,4.07
2023-04-19T10:28:31.148Z,4.08
2023-04-19T10:30:32.624Z,4.09
2023-04-19T10:40:40.103Z,4.1
2023-04-19T10:44:42.529Z,4.11
2023-04-19T10:46:43.916Z,4.11
2023-04-19T10:50:46.889Z,4.12
2023-04-19T10:54:49.021Z,4.12
2023-04-19T10:56:49.980Z,4.12
2023-04-19T11:00:52.938Z,4.13
2023-04-19T11:06:57.331Z,4.14
2023-04-19T11:13:01.762Z,4.15
2023-04-19T11:17:05.489Z,4.16
2023-04-19T11:23:10.008Z,4.17
2023-04-19T11:27:13.646Z,4.17
2023-04-19T11:29:15.095Z,4.17
2023-04-19T11:33:18.220Z,4.17
2023-04-19T11:37:21.281Z,4.18
2023-04-19T11:39:23.490Z,4.18
2023-04-19T11:43:25.337Z,4.19
2023-04-19T11:49:30.197Z,4.19
2023-04-19T11:55:33.761Z,4.19
2023-04-19T11:59:36.727Z,4.19
2023-04-19T12:05:40.792Z,4.19
2023-04-19T12:09:42.759Z,4.19
2023-04-19T12:11:44.188Z,4.2
2023-04-19T12:15:46.974Z,4.2
2023-04-19T12:19:50.038Z,4.19
2023-04-19T12:21:50.889Z,4.2
2023-04-19T12:25:53.399Z,4.2
2023-04-19T12:29:55.410Z,4.2
2023-04-19T12:31:57.028Z,4.2
2023-04-19T12:36:00.893Z,4.2
2023-04-19T12:38:02.315Z,4.2
2023-04-19T12:40:03.208Z,4.2
2023-04-19T12:42:04.562Z,4.2
2023-04-19T12:48:09.132Z,4.2
2023-04-19T12:50:10.312Z,4.2
2023-04-19T12:54:12.877Z,4.2
2023-04-19T12:58:15.930Z,4.19
2023-04-19T13:04:20.692Z,4.19
2023-04-19T13:08:33.942Z,4.19
2023-04-19T13:10:24.145Z,4.18
2023-04-19T13:14:26.802Z,4.19
2023-04-19T13:18:29.537Z,4.19
2023-04-19T13:20:31.330Z,4.19
2023-04-19T13:24:34.510Z,4.18
2023-04-19T13:30:38.026Z,4.18
2023-04-19T13:36:42.669Z,4.18
2023-04-19T13:40:45.275Z,4.18
2023-04-19T13:46:49.186Z,4.18
2023-04-19T13:50:51.429Z,4.18
2023-04-19T13:52:52.972Z,4.17
2023-04-19T13:56:55.457Z,4.18
2023-04-19T14:00:57.773Z,4.17
2023-04-19T14:02:59.300Z,4.17
2023-04-19T14:07:01.381Z,4.17
2023-04-19T14:11:03.474Z,4.17
2023-04-19T14:13:04.877Z,4.17
2023-04-19T14:17:07.430Z,4.17
2023-04-19T14:19:08.328Z,4.17
2023-04-19T14:21:10.162Z,4.17
2023-04-19T14:23:11.278Z,4.17
2023-04-19T14:29:16.277Z,4.17
2023-04-19T14:35:20.333Z,4.17
2023-04-19T14:39:22.991Z,4.17
2023-04-19T14:45:27.061Z,4.17
2023-04-19T14:49:30.147Z,4.17
2023-04-19T14:53:33.988Z,4.17
2023-04-19T14:55:35.057Z,4.16
2023-04-19T14:59:37.982Z,4.17
2023-04-19T15:01:47.358Z,4.16
2023-04-19T15:03:40.997Z,4.16
2023-04-19T15:05:42.532Z,4.17
2023-04-19T15:11:46.112Z,4.16
2023-04-19T15:13:47.913Z,4.16
2023-04-19T15:17:50.684Z,4.16
2023-04-19T15:21:52.726Z,4.16
2023-04-19T15:27:56.562Z,4.16
2023-04-19T15:31:58.669Z,4.16
2023-04-19T15:33:59.620Z,4.16
2023-04-19T15:38:01.951Z,4.16
2023-04-19T15:42:04.248Z,4.16
2023-04-19T15:44:05.199Z,4.16
2023-04-19T15:48:07.506Z,4.16
2023-04-19T15:54:11.212Z,4.16
2023-04-19T16:00:15.539Z,4.16
2023-04-19T16:04:18.346Z,4.16
2023-04-19T16:10:22.324Z,4.16
2023-04-19T16:16:25.638Z,4.16
2023-04-19T16:20:28.435Z,4.15
2023-04-19T16:24:31.662Z,4.15
2023-04-19T16:26:32.596Z,4.15
2023-04-19T16:29:18.109Z,4.15
2023-04-19T16:31:19.895Z,4.15
2023-04-19T16:35:21.741Z,4.15
2023-04-19T16:37:22.999Z,4.15
2023-04-19T16:41:26.580Z,4.15
2023-04-19T16:47:29.827Z,4.15
2023-04-19T16:53:34.161Z,4.15
2023-04-19T16:57:37.411Z,4.15
2023-04-19T17:03:40.932Z,4.14
2023-04-19T17:07:43.419Z,4.14
2023-04-19T17:09:45.175Z,4.14
2023-04-19T17:13:47.032Z,4.14
2023-04-19T17:17:49.068Z,4.14
2023-04-19T17:19:49.914Z,4.14
2023-04-19T17:23:52.724Z,4.14
2023-04-19T17:29:57.281Z,4.14
2023-04-19T17:36:02.929Z,4.14
2023-04-19T17:40:06.079Z,4.14
2023-04-19T17:46:13.115Z,4.14
2023-04-19T17:50:17.156Z,4.14
2023-04-19T17:52:19.089Z,4.14
2023-04-19T17:56:21.481Z,4.14
2023-04-19T18:00:24.848Z,4.13
2023-04-19T18:02:26.603Z,4.14
2023-04-19T18:06:29.243Z,4.13
